Coaldale, Nevada
Current Conditions -  °F | °C
As of 6:56 AM on Thursday 18 Dec 2014 (Local Time) from KTPH Reporting Station
Clear Clear  
Wind Chill: 28°   Ceiling: Unl
Heat Index: 28°   Visibility: 10mi
Dew Point: 25°   Wind: 3mph
Humidity: 88%   Direction: 340°NNW
Pressure: 30.13"   Gusts: NA
Location:  38.4847°N, 116.233°W
Report Text: KTPH 181456Z AUTO 34003KT 10SM CLR M02/M04 A3013 RMK AO2 SLP217 T10221039 53010
Loading
Personal Weather Stations






























Interactive Weather Map New forecast layout! Learn more

10-Day Weather Forecast

Advertisements
Track Severe Weather on mobile